sensor_id;sensor_type;location;lat;lon;timestamp;pressure;altitude;pressure_sealevel;temperature;humidity
45793;BME280;31495;42.740;22.908;2023-12-28T00:00:14;94163.31;;;0.98;74.31
45793;BME280;31495;42.740;22.908;2023-12-28T00:01:14;94088.38;;;0.48;74.12
45793;BME280;31495;42.740;22.908;2023-12-28T00:02:13;94181.22;;;1.07;73.80
45793;BME280;31495;42.740;22.908;2023-12-28T00:03:13;94115.00;;;0.65;73.01
45793;BME280;31495;42.740;22.908;2023-12-28T00:04:13;94167.25;;;1.02;72.40
45793;BME280;31495;42.740;22.908;2023-12-28T00:05:13;94104.38;;;0.60;72.50
45793;BME280;31495;42.740;22.908;2023-12-28T00:06:12;94098.78;;;0.45;72.82
45793;BME280;31495;42.740;22.908;2023-12-28T00:07:12;94137.91;;;0.65;72.83
45793;BME280;31495;42.740;22.908;2023-12-28T00:08:12;94111.53;;;0.45;73.10
45793;BME280;31495;42.740;22.908;2023-12-28T00:09:11;94107.00;;;0.49;72.97
45793;BME280;31495;42.740;22.908;2023-12-28T00:10:11;94181.53;;;0.93;73.38
45793;BME280;31495;42.740;22.908;2023-12-28T00:11:10;94158.41;;;0.85;73.00
45793;BME280;31495;42.740;22.908;2023-12-28T00:12:10;94182.59;;;0.90;73.25
45793;BME280;31495;42.740;22.908;2023-12-28T00:13:10;94175.94;;;0.78;73.36
45793;BME280;31495;42.740;22.908;2023-12-28T00:14:10;94188.31;;;0.83;73.83
45793;BME280;31495;42.740;22.908;2023-12-28T00:15:10;94160.41;;;0.60;73.62
45793;BME280;31495;42.740;22.908;2023-12-28T00:16:10;94135.38;;;0.44;74.03
45793;BME280;31495;42.740;22.908;2023-12-28T00:17:10;94172.09;;;0.63;74.27
45793;BME280;31495;42.740;22.908;2023-12-28T00:18:09;94178.97;;;0.72;74.50
45793;BME280;31495;42.740;22.908;2023-12-28T00:19:09;94125.53;;;0.51;74.42
45793;BME280;31495;42.740;22.908;2023-12-28T00:20:09;94185.94;;;0.91;74.22
45793;BME280;31495;42.740;22.908;2023-12-28T00:21:09;94013.34;;;-0.32;74.12
45793;BME280;31495;42.740;22.908;2023-12-28T00:22:08;94186.38;;;0.75;74.54
45793;BME280;31495;42.740;22.908;2023-12-28T00:23:08;93998.88;;;-0.52;74.20
45793;BME280;31495;42.740;22.908;2023-12-28T00:24:07;94134.19;;;0.27;74.78
45793;BME280;31495;42.740;22.908;2023-12-28T00:25:07;94188.44;;;0.60;74.64
45793;BME280;31495;42.740;22.908;2023-12-28T00:26:06;94058.88;;;-0.29;74.63
45793;BME280;31495;42.740;22.908;2023-12-28T00:27:06;94181.22;;;0.65;74.66
45793;BME280;31495;42.740;22.908;2023-12-28T00:28:05;94112.00;;;0.18;74.56
45793;BME280;31495;42.740;22.908;2023-12-28T00:29:05;94101.81;;;0.18;74.28
45793;BME280;31495;42.740;22.908;2023-12-28T00:30:05;94104.75;;;0.13;74.06
45793;BME280;31495;42.740;22.908;2023-12-28T00:31:05;94049.81;;;-0.22;73.95
45793;BME280;31495;42.740;22.908;2023-12-28T00:32:05;94184.41;;;0.58;73.48
45793;BME280;31495;42.740;22.908;2023-12-28T00:33:05;94194.59;;;0.58;73.13
45793;BME280;31495;42.740;22.908;2023-12-28T00:34:04;94185.13;;;0.48;72.79
45793;BME280;31495;42.740;22.908;2023-12-28T00:35:04;94184.00;;;0.41;73.11
45793;BME280;31495;42.740;22.908;2023-12-28T00:36:04;94183.09;;;0.31;73.74
45793;BME280;31495;42.740;22.908;2023-12-28T00:37:03;94064.00;;;-0.40;73.75
45793;BME280;31495;42.740;22.908;2023-12-28T00:38:03;94134.16;;;0.06;74.01
45793;BME280;31495;42.740;22.908;2023-12-28T00:39:02;94134.59;;;0.11;74.05
45793;BME280;31495;42.740;22.908;2023-12-28T00:40:03;94119.63;;;-0.03;74.01
45793;BME280;31495;42.740;22.908;2023-12-28T00:41:02;94154.09;;;0.22;73.70
45793;BME280;31495;42.740;22.908;2023-12-28T00:42:03;94061.56;;;-0.42;73.63
45793;BME280;31495;42.740;22.908;2023-12-28T00:43:03;94104.84;;;-0.09;73.45
45793;BME280;31495;42.740;22.908;2023-12-28T00:44:02;94196.31;;;0.57;73.54
45793;BME280;31495;42.740;22.908;2023-12-28T00:45:02;94166.31;;;0.40;73.35
45793;BME280;31495;42.740;22.908;2023-12-28T00:46:02;94195.75;;;0.53;73.35
45793;BME280;31495;42.740;22.908;2023-12-28T00:47:01;94093.59;;;-0.07;73.66
45793;BME280;31495;42.740;22.908;2023-12-28T00:48:01;94110.59;;;-0.07;74.06
45793;BME280;31495;42.740;22.908;2023-12-28T00:49:00;94154.03;;;0.12;74.46
45793;BME280;31495;42.740;22.908;2023-12-28T00:50:00;94197.41;;;0.43;74.58
45793;BME280;31495;42.740;22.908;2023-12-28T00:50:59;94162.66;;;0.21;74.75
45793;BME280;31495;42.740;22.908;2023-12-28T00:51:58;94174.09;;;0.27;74.47
45793;BME280;31495;42.740;22.908;2023-12-28T00:52:58;94120.53;;;-0.04;73.96
45793;BME280;31495;42.740;22.908;2023-12-28T00:53:58;94128.16;;;-0.04;74.05
45793;BME280;31495;42.740;22.908;2023-12-28T00:54:57;94183.41;;;0.38;73.64
45793;BME280;31495;42.740;22.908;2023-12-28T00:55:57;94174.78;;;0.29;73.94
45793;BME280;31495;42.740;22.908;2023-12-28T00:56:56;94206.53;;;0.46;74.08
45793;BME280;31495;42.740;22.908;2023-12-28T00:57:55;94142.28;;;0.00;74.11
45793;BME280;31495;42.740;22.908;2023-12-28T00:58:55;94207.97;;;0.39;74.11
45793;BME280;31495;42.740;22.908;2023-12-28T00:59:54;94183.63;;;0.25;74.07
45793;BME280;31495;42.740;22.908;2023-12-28T01:00:54;94190.06;;;0.29;74.27
45793;BME280;31495;42.740;22.908;2023-12-28T01:01:56;94113.84;;;-0.16;74.24
45793;BME280;31495;42.740;22.908;2023-12-28T01:02:55;94152.47;;;0.00;74.32
45793;BME280;31495;42.740;22.908;2023-12-28T01:03:55;94186.75;;;0.17;74.41
45793;BME280;31495;42.740;22.908;2023-12-28T01:04:54;94126.13;;;-0.22;74.65
45793;BME280;31495;42.740;22.908;2023-12-28T01:05:54;94127.75;;;-0.21;74.41
45793;BME280;31495;42.740;22.908;2023-12-28T01:06:53;94034.16;;;-0.70;74.44
45793;BME280;31495;42.740;22.908;2023-12-28T01:07:53;94205.75;;;0.45;74.17
45793;BME280;31495;42.740;22.908;2023-12-28T01:08:52;94206.31;;;0.49;74.09
45793;BME280;31495;42.740;22.908;2023-12-28T01:09:52;94208.53;;;0.42;74.12
45793;BME280;31495;42.740;22.908;2023-12-28T01:10:51;94148.25;;;0.10;73.74
45793;BME280;31495;42.740;22.908;2023-12-28T01:11:50;94121.69;;;-0.08;73.80
45793;BME280;31495;42.740;22.908;2023-12-28T01:12:50;94132.69;;;-0.08;73.41
45793;BME280;31495;42.740;22.908;2023-12-28T01:13:51;94189.50;;;0.25;73.16
45793;BME280;31495;42.740;22.908;2023-12-28T01:14:51;94213.66;;;0.31;72.97
45793;BME280;31495;42.740;22.908;2023-12-28T01:15:50;94131.94;;;-0.20;73.09
45793;BME280;31495;42.740;22.908;2023-12-28T01:16:51;94174.16;;;0.15;73.26
45793;BME280;31495;42.740;22.908;2023-12-28T01:17:50;94073.06;;;-0.47;73.20
45793;BME280;31495;42.740;22.908;2023-12-28T01:18:50;94108.63;;;-0.36;73.92
45793;BME280;31495;42.740;22.908;2023-12-28T01:19:49;94205.09;;;0.32;74.02
45793;BME280;31495;42.740;22.908;2023-12-28T01:20:49;94138.59;;;-0.07;73.81
45793;BME280;31495;42.740;22.908;2023-12-28T01:21:49;94174.38;;;0.12;74.20
45793;BME280;31495;42.740;22.908;2023-12-28T01:22:49;94212.38;;;0.36;74.36
45793;BME280;31495;42.740;22.908;2023-12-28T01:23:53;94199.56;;;0.27;74.53
45793;BME280;31495;42.740;22.908;2023-12-28T01:24:53;94201.75;;;0.31;73.62
45793;BME280;31495;42.740;22.908;2023-12-28T01:25:55;94158.47;;;-0.01;73.21
45793;BME280;31495;42.740;22.908;2023-12-28T01:26:55;94114.16;;;-0.31;72.64
45793;BME280;31495;42.740;22.908;2023-12-28T01:27:54;94184.81;;;0.09;72.29
45793;BME280;31495;42.740;22.908;2023-12-28T01:28:53;94173.72;;;-0.01;72.20
45793;BME280;31495;42.740;22.908;2023-12-28T01:29:53;94202.69;;;0.19;72.40
45793;BME280;31495;42.740;22.908;2023-12-28T01:30:53;94123.72;;;-0.34;72.77
45793;BME280;31495;42.740;22.908;2023-12-28T01:31:52;94190.56;;;0.11;73.28
45793;BME280;31495;42.740;22.908;2023-12-28T01:32:51;94140.25;;;-0.17;73.74
45793;BME280;31495;42.740;22.908;2023-12-28T01:33:51;94103.66;;;-0.38;73.90
45793;BME280;31495;42.740;22.908;2023-12-28T01:34:50;94132.59;;;-0.17;73.95
45793;BME280;31495;42.740;22.908;2023-12-28T01:35:50;94206.53;;;0.25;73.69
45793;BME280;31495;42.740;22.908;2023-12-28T01:36:49;94187.44;;;0.19;73.29
45793;BME280;31495;42.740;22.908;2023-12-28T01:37:49;94196.38;;;0.13;73.77
45793;BME280;31495;42.740;22.908;2023-12-28T01:38:49;94074.09;;;-0.61;74.31
45793;BME280;31495;42.740;22.908;2023-12-28T01:39:48;94208.25;;;0.24;74.44
45793;BME280;31495;42.740;22.908;2023-12-28T01:40:48;94150.63;;;-0.09;74.61
45793;BME280;31495;42.740;22.908;2023-12-28T01:41:47;94163.44;;;0.01;74.27
45793;BME280;31495;42.740;22.908;2023-12-28T01:42:47;94203.03;;;0.26;73.87
45793;BME280;31495;42.740;22.908;2023-12-28T01:43:46;94143.59;;;-0.17;73.77
45793;BME280;31495;42.740;22.908;2023-12-28T01:44:46;94202.81;;;0.17;73.45
45793;BME280;31495;42.740;22.908;2023-12-28T01:45:46;94116.94;;;-0.34;73.30
45793;BME280;31495;42.740;22.908;2023-12-28T01:46:46;94089.56;;;-0.53;73.60
45793;BME280;31495;42.740;22.908;2023-12-28T01:47:45;94175.88;;;0.15;73.56
45793;BME280;31495;42.740;22.908;2023-12-28T01:48:49;94200.72;;;0.23;73.52
45793;BME280;31495;42.740;22.908;2023-12-28T01:49:49;94070.09;;;-0.64;73.56
45793;BME280;31495;42.740;22.908;2023-12-28T01:50:49;94200.88;;;0.10;73.85
45793;BME280;31495;42.740;22.908;2023-12-28T01:51:49;94166.94;;;-0.12;73.48
45793;BME280;31495;42.740;22.908;2023-12-28T01:52:49;94203.56;;;0.08;73.42
45793;BME280;31495;42.740;22.908;2023-12-28T01:53:50;94190.47;;;0.02;73.29
45793;BME280;31495;42.740;22.908;2023-12-28T01:54:50;94199.84;;;0.01;73.08
45793;BME280;31495;42.740;22.908;2023-12-28T01:55:51;94124.91;;;-0.39;73.09
45793;BME280;31495;42.740;22.908;2023-12-28T01:56:51;94185.53;;;0.00;72.96
45793;BME280;31495;42.740;22.908;2023-12-28T01:57:50;94131.50;;;-0.36;73.14
45793;BME280;31495;42.740;22.908;2023-12-28T01:58:50;94194.19;;;0.09;73.47
45793;BME280;31495;42.740;22.908;2023-12-28T01:59:52;94217.38;;;0.27;72.87
45793;BME280;31495;42.740;22.908;2023-12-28T02:00:55;94207.91;;;0.17;73.00
45793;BME280;31495;42.740;22.908;2023-12-28T02:01:55;94213.31;;;0.24;73.10
45793;BME280;31495;42.740;22.908;2023-12-28T02:02:55;94115.41;;;-0.37;73.26
45793;BME280;31495;42.740;22.908;2023-12-28T02:03:55;94208.34;;;0.23;73.46
45793;BME280;31495;42.740;22.908;2023-12-28T02:04:55;94085.44;;;-0.65;73.68
45793;BME280;31495;42.740;22.908;2023-12-28T02:05:55;94208.97;;;0.15;73.69
45793;BME280;31495;42.740;22.908;2023-12-28T02:06:57;94202.13;;;0.15;72.84
45793;BME280;31495;42.740;22.908;2023-12-28T02:07:56;94169.25;;;-0.20;72.36
45793;BME280;31495;42.740;22.908;2023-12-28T02:08:56;94189.69;;;-0.10;72.36
45793;BME280;31495;42.740;22.908;2023-12-28T02:09:56;94210.38;;;0.08;72.19
45793;BME280;31495;42.740;22.908;2023-12-28T02:10:55;94190.88;;;-0.14;72.16
45793;BME280;31495;42.740;22.908;2023-12-28T02:11:55;94185.47;;;-0.21;72.71
45793;BME280;31495;42.740;22.908;2023-12-28T02:12:54;94148.59;;;-0.38;73.01
45793;BME280;31495;42.740;22.908;2023-12-28T02:13:55;94195.03;;;-0.13;72.94
45793;BME280;31495;42.740;22.908;2023-12-28T02:14:54;94209.81;;;-0.07;73.13
45793;BME280;31495;42.740;22.908;2023-12-28T02:17:38;94204.88;;;-0.20;73.24
45793;BME280;31495;42.740;22.908;2023-12-28T02:18:44;94203.59;;;-0.14;73.43
45793;BME280;31495;42.740;22.908;2023-12-28T02:19:53;94202.66;;;-0.13;73.34
45793;BME280;31495;42.740;22.908;2023-12-28T02:20:54;94135.22;;;-0.63;73.47
45793;BME280;31495;42.740;22.908;2023-12-28T02:21:54;94132.91;;;-0.66;73.02
45793;BME280;31495;42.740;22.908;2023-12-28T02:22:54;94140.41;;;-0.64;73.13
45793;BME280;31495;42.740;22.908;2023-12-28T02:23:54;94204.19;;;-0.22;73.23
45793;BME280;31495;42.740;22.908;2023-12-28T02:25:05;94183.50;;;-0.29;72.97
45793;BME280;31495;42.740;22.908;2023-12-28T02:26:05;94065.16;;;-0.99;72.93
45793;BME280;31495;42.740;22.908;2023-12-28T02:27:05;94098.06;;;-0.86;73.06
45793;BME280;31495;42.740;22.908;2023-12-28T02:28:04;94166.28;;;-0.37;72.74
45793;BME280;31495;42.740;22.908;2023-12-28T02:29:05;94135.78;;;-0.59;72.80
45793;BME280;31495;42.740;22.908;2023-12-28T02:30:06;94154.63;;;-0.50;73.42
45793;BME280;31495;42.740;22.908;2023-12-28T02:31:06;94192.25;;;-0.10;73.03
45793;BME280;31495;42.740;22.908;2023-12-28T02:32:09;94117.09;;;-0.69;72.87
45793;BME280;31495;42.740;22.908;2023-12-28T02:33:28;94129.00;;;-0.59;72.87
45793;BME280;31495;42.740;22.908;2023-12-28T02:34:34;94197.34;;;-0.10;72.89
45793;BME280;31495;42.740;22.908;2023-12-28T02:35:44;94197.34;;;-0.10;72.42
45793;BME280;31495;42.740;22.908;2023-12-28T02:36:45;94193.44;;;-0.14;72.50
45793;BME280;31495;42.740;22.908;2023-12-28T02:37:51;94197.44;;;-0.12;72.42
45793;BME280;31495;42.740;22.908;2023-12-28T02:38:52;94162.38;;;-0.41;72.73
45793;BME280;31495;42.740;22.908;2023-12-28T02:39:53;94180.97;;;-0.29;72.78
45793;BME280;31495;42.740;22.908;2023-12-28T02:40:53;94177.84;;;-0.32;72.74
45793;BME280;31495;42.740;22.908;2023-12-28T02:41:54;94197.97;;;-0.29;72.68
45793;BME280;31495;42.740;22.908;2023-12-28T02:42:54;94108.22;;;-0.98;73.14
45793;BME280;31495;42.740;22.908;2023-12-28T02:43:53;94159.94;;;-0.53;73.20
45793;BME280;31495;42.740;22.908;2023-12-28T02:44:53;94184.91;;;-0.36;73.03
45793;BME280;31495;42.740;22.908;2023-12-28T02:45:53;94060.41;;;-1.15;72.89
45793;BME280;31495;42.740;22.908;2023-12-28T02:46:53;94192.38;;;-0.34;72.83
45793;BME280;31495;42.740;22.908;2023-12-28T02:47:52;94177.63;;;-0.29;72.50
45793;BME280;31495;42.740;22.908;2023-12-28T02:48:52;94164.47;;;-0.46;72.64
45793;BME280;31495;42.740;22.908;2023-12-28T02:49:52;94190.56;;;-0.21;72.60
45793;BME280;31495;42.740;22.908;2023-12-28T02:50:52;94203.16;;;-0.20;72.71
45793;BME280;31495;42.740;22.908;2023-12-28T02:51:51;94089.03;;;-0.90;72.52
45793;BME280;31495;42.740;22.908;2023-12-28T02:52:51;94193.66;;;-0.29;72.60
45793;BME280;31495;42.740;22.908;2023-12-28T02:53:50;94139.38;;;-0.62;72.73
45793;BME280;31495;42.740;22.908;2023-12-28T02:54:50;94167.81;;;-0.45;72.68
45793;BME280;31495;42.740;22.908;2023-12-28T02:55:49;94122.50;;;-0.63;72.45
45793;BME280;31495;42.740;22.908;2023-12-28T02:56:49;94166.38;;;-0.27;72.26
45793;BME280;31495;42.740;22.908;2023-12-28T02:57:50;94159.13;;;-0.43;72.59
45793;BME280;31495;42.740;22.908;2023-12-28T02:58:50;94084.19;;;-0.82;72.46
45793;BME280;31495;42.740;22.908;2023-12-28T02:59:49;94114.66;;;-0.71;72.61
45793;BME280;31495;42.740;22.908;2023-12-28T03:00:49;94116.28;;;-0.70;72.47
45793;BME280;31495;42.740;22.908;2023-12-28T03:01:48;94199.91;;;-0.33;72.70
45793;BME280;31495;42.740;22.908;2023-12-28T03:02:48;94130.03;;;-0.72;72.79
45793;BME280;31495;42.740;22.908;2023-12-28T03:03:47;94184.66;;;-0.33;72.84
45793;BME280;31495;42.740;22.908;2023-12-28T03:04:47;94189.72;;;-0.33;72.70
45793;BME280;31495;42.740;22.908;2023-12-28T03:05:47;94187.56;;;-0.26;72.62
45793;BME280;31495;42.740;22.908;2023-12-28T03:06:46;94116.41;;;-0.71;72.06
45793;BME280;31495;42.740;22.908;2023-12-28T03:07:46;94148.50;;;-0.59;71.86
45793;BME280;31495;42.740;22.908;2023-12-28T03:08:46;94181.31;;;-0.33;71.85
45793;BME280;31495;42.740;22.908;2023-12-28T03:09:46;94145.38;;;-0.63;72.05
45793;BME280;31495;42.740;22.908;2023-12-28T03:10:46;94187.19;;;-0.33;72.04
45793;BME280;31495;42.740;22.908;2023-12-28T03:11:46;94180.63;;;-0.35;71.81
45793;BME280;31495;42.740;22.908;2023-12-28T03:12:47;94184.44;;;-0.41;72.07
45793;BME280;31495;42.740;22.908;2023-12-28T03:13:47;94051.88;;;-1.25;72.05
45793;BME280;31495;42.740;22.908;2023-12-28T03:14:47;94049.00;;;-1.21;71.95
45793;BME280;31495;42.740;22.908;2023-12-28T03:15:47;94183.97;;;-0.35;71.78
45793;BME280;31495;42.740;22.908;2023-12-28T03:16:46;94185.47;;;-0.32;71.21
45793;BME280;31495;42.740;22.908;2023-12-28T03:17:46;94147.59;;;-0.69;71.36
45793;BME280;31495;42.740;22.908;2023-12-28T03:18:45;94145.38;;;-0.63;71.14
45793;BME280;31495;42.740;22.908;2023-12-28T03:19:45;94183.50;;;-0.40;70.92
45793;BME280;31495;42.740;22.908;2023-12-28T03:20:44;94085.81;;;-1.04;71.21
45793;BME280;31495;42.740;22.908;2023-12-28T03:21:44;94152.44;;;-0.66;71.26
45793;BME280;31495;42.740;22.908;2023-12-28T03:22:43;94175.53;;;-0.47;71.18
45793;BME280;31495;42.740;22.908;2023-12-28T03:23:42;94194.72;;;-0.43;71.36
45793;BME280;31495;42.740;22.908;2023-12-28T03:24:42;94085.47;;;-1.11;71.48
45793;BME280;31495;42.740;22.908;2023-12-28T03:25:42;94110.19;;;-0.90;71.15
45793;BME280;31495;42.740;22.908;2023-12-28T03:26:41;94163.28;;;-0.53;71.39
45793;BME280;31495;42.740;22.908;2023-12-28T03:27:41;94076.13;;;-1.10;71.06
45793;BME280;31495;42.740;22.908;2023-12-28T03:28:40;94113.75;;;-0.93;70.89
45793;BME280;31495;42.740;22.908;2023-12-28T03:29:43;94103.94;;;-0.97;71.00
45793;BME280;31495;42.740;22.908;2023-12-28T03:30:43;94089.03;;;-1.02;70.94
45793;BME280;31495;42.740;22.908;2023-12-28T03:31:43;94158.94;;;-0.62;70.96
45793;BME280;31495;42.740;22.908;2023-12-28T03:32:42;94126.13;;;-0.77;70.74
45793;BME280;31495;42.740;22.908;2023-12-28T03:33:41;94182.38;;;-0.47;70.78
45793;BME280;31495;42.740;22.908;2023-12-28T03:34:40;94115.63;;;-0.95;70.83
45793;BME280;31495;42.740;22.908;2023-12-28T03:35:40;94105.09;;;-1.13;71.19
45793;BME280;31495;42.740;22.908;2023-12-28T03:36:40;94117.47;;;-1.08;70.72
45793;BME280;31495;42.740;22.908;2023-12-28T03:37:39;94159.63;;;-0.83;70.95
45793;BME280;31495;42.740;22.908;2023-12-28T03:38:38;94118.59;;;-1.12;70.97
45793;BME280;31495;42.740;22.908;2023-12-28T03:39:38;94148.19;;;-1.00;71.06
45793;BME280;31495;42.740;22.908;2023-12-28T03:40:38;94190.00;;;-0.70;71.40
45793;BME280;31495;42.740;22.908;2023-12-28T03:41:37;94107.31;;;-1.19;71.45
45793;BME280;31495;42.740;22.908;2023-12-28T03:42:37;94124.47;;;-1.12;71.65
45793;BME280;31495;42.740;22.908;2023-12-28T03:43:37;94194.75;;;-0.65;71.64
45793;BME280;31495;42.740;22.908;2023-12-28T03:44:37;94177.06;;;-0.78;71.85
45793;BME280;31495;42.740;22.908;2023-12-28T03:45:36;94189.53;;;-0.75;72.30
45793;BME280;31495;42.740;22.908;2023-12-28T03:46:36;94151.06;;;-1.04;72.63
45793;BME280;31495;42.740;22.908;2023-12-28T03:47:37;94142.50;;;-1.03;72.45
45793;BME280;31495;42.740;22.908;2023-12-28T03:48:36;94165.25;;;-0.90;72.78
45793;BME280;31495;42.740;22.908;2023-12-28T03:49:36;94038.72;;;-1.53;72.51
45793;BME280;31495;42.740;22.908;2023-12-28T03:50:36;94132.94;;;-1.00;72.58
45793;BME280;31495;42.740;22.908;2023-12-28T03:51:35;94153.97;;;-0.86;72.71
45793;BME280;31495;42.740;22.908;2023-12-28T03:52:35;94197.16;;;-0.64;72.86
45793;BME280;31495;42.740;22.908;2023-12-28T03:53:34;94123.56;;;-1.11;73.33
45793;BME280;31495;42.740;22.908;2023-12-28T03:54:34;94109.97;;;-1.09;74.34
45793;BME280;31495;42.740;22.908;2023-12-28T03:55:33;94181.53;;;-0.59;74.58
45793;BME280;31495;42.740;22.908;2023-12-28T03:56:33;94155.44;;;-0.84;74.99
45793;BME280;31495;42.740;22.908;2023-12-28T03:57:34;94189.53;;;-0.64;75.29
45793;BME280;31495;42.740;22.908;2023-12-28T03:58:34;94104.28;;;-1.24;75.53
45793;BME280;31495;42.740;22.908;2023-12-28T03:59:33;94112.72;;;-1.24;75.87
45793;BME280;31495;42.740;22.908;2023-12-28T04:00:35;94096.22;;;-1.30;75.97
45793;BME280;31495;42.740;22.908;2023-12-28T04:01:35;94092.41;;;-1.24;76.28
45793;BME280;31495;42.740;22.908;2023-12-28T04:02:35;94183.75;;;-0.66;76.64
45793;BME280;31495;42.740;22.908;2023-12-28T04:03:34;94154.19;;;-0.89;76.86
45793;BME280;31495;42.740;22.908;2023-12-28T04:04:34;94174.53;;;-0.67;77.00
45793;BME280;31495;42.740;22.908;2023-12-28T04:05:33;93996.50;;;-1.77;76.96
45793;BME280;31495;42.740;22.908;2023-12-28T04:06:33;94108.56;;;-1.02;76.88
45793;BME280;31495;42.740;22.908;2023-12-28T04:07:32;94165.38;;;-0.69;77.10
45793;BME280;31495;42.740;22.908;2023-12-28T04:08:32;94140.19;;;-0.84;76.63
45793;BME280;31495;42.740;22.908;2023-12-28T04:09:31;94145.28;;;-0.84;76.64
45793;BME280;31495;42.740;22.908;2023-12-28T04:10:32;94186.06;;;-0.51;76.40
45793;BME280;31495;42.740;22.908;2023-12-28T04:11:32;94109.47;;;-1.03;76.44
45793;BME280;31495;42.740;22.908;2023-12-28T04:12:32;94172.66;;;-0.76;76.94
45793;BME280;31495;42.740;22.908;2023-12-28T04:13:31;94177.75;;;-0.65;77.30
45793;BME280;31495;42.740;22.908;2023-12-28T04:14:31;94188.03;;;-0.55;77.15
45793;BME280;31495;42.740;22.908;2023-12-28T04:15:31;94052.94;;;-1.39;77.41
45793;BME280;31495;42.740;22.908;2023-12-28T04:16:30;94192.44;;;-0.57;77.78
45793;BME280;31495;42.740;22.908;2023-12-28T04:17:30;94158.69;;;-0.70;77.91
45793;BME280;31495;42.740;22.908;2023-12-28T04:18:29;94149.09;;;-0.78;78.02
45793;BME280;31495;42.740;22.908;2023-12-28T04:19:30;94126.00;;;-0.98;78.22
45793;BME280;31495;42.740;22.908;2023-12-28T04:20:30;94194.16;;;-0.58;78.08
45793;BME280;31495;42.740;22.908;2023-12-28T04:21:29;94113.53;;;-1.01;78.16
45793;BME280;31495;42.740;22.908;2023-12-28T04:22:28;94160.06;;;-0.66;78.23
45793;BME280;31495;42.740;22.908;2023-12-28T04:23:28;94083.38;;;-1.05;78.09
45793;BME280;31495;42.740;22.908;2023-12-28T04:24:27;94111.69;;;-0.87;77.80
45793;BME280;31495;42.740;22.908;2023-12-28T04:25:27;94166.53;;;-0.51;77.82
45793;BME280;31495;42.740;22.908;2023-12-28T04:26:26;94182.72;;;-0.41;78.02
45793;BME280;31495;42.740;22.908;2023-12-28T04:27:26;94192.38;;;-0.34;78.01
45793;BME280;31495;42.740;22.908;2023-12-28T04:28:25;94088.59;;;-0.96;78.00
45793;BME280;31495;42.740;22.908;2023-12-28T04:29:25;94174.72;;;-0.36;78.25
45793;BME280;31495;42.740;22.908;2023-12-28T04:30:24;94141.25;;;-0.64;78.37
45793;BME280;31495;42.740;22.908;2023-12-28T04:31:24;94109.59;;;-0.82;78.76
45793;BME280;31495;42.740;22.908;2023-12-28T04:32:23;94174.03;;;-0.38;78.78
45793;BME280;31495;42.740;22.908;2023-12-28T04:33:23;94128.06;;;-0.69;78.79
45793;BME280;31495;42.740;22.908;2023-12-28T04:34:22;94173.22;;;-0.39;78.56
45793;BME280;31495;42.740;22.908;2023-12-28T04:35:22;94125.78;;;-0.72;78.43
45793;BME280;31495;42.740;22.908;2023-12-28T04:36:21;94110.88;;;-0.77;78.29
45793;BME280;31495;42.740;22.908;2023-12-28T04:37:21;94157.63;;;-0.45;78.16
45793;BME280;31495;42.740;22.908;2023-12-28T04:38:20;94115.00;;;-0.64;78.00
45793;BME280;31495;42.740;22.908;2023-12-28T04:39:20;94170.31;;;-0.23;77.17
45793;BME280;31495;42.740;22.908;2023-12-28T04:40:20;94180.00;;;-0.16;77.31
45793;BME280;31495;42.740;22.908;2023-12-28T04:41:20;94045.19;;;-1.04;77.19
45793;BME280;31495;42.740;22.908;2023-12-28T04:42:20;94104.94;;;-0.66;77.36
45793;BME280;31495;42.740;22.908;2023-12-28T04:43:20;94178.63;;;-0.21;77.08
45793;BME280;31495;42.740;22.908;2023-12-28T04:44:20;94171.47;;;-0.27;76.71
45793;BME280;31495;42.740;22.908;2023-12-28T04:45:20;94129.22;;;-0.62;76.84
45793;BME280;31495;42.740;22.908;2023-12-28T04:46:21;94185.34;;;-0.31;77.13
45793;BME280;31495;42.740;22.908;2023-12-28T04:47:21;94097.84;;;-0.95;77.61
45793;BME280;31495;42.740;22.908;2023-12-28T04:48:21;94185.47;;;-0.44;77.63
45793;BME280;31495;42.740;22.908;2023-12-28T04:49:23;94173.00;;;-0.58;77.84
45793;BME280;31495;42.740;22.908;2023-12-28T04:50:22;94177.63;;;-0.52;78.00
45793;BME280;31495;42.740;22.908;2023-12-28T04:51:21;94108.44;;;-1.01;78.23
45793;BME280;31495;42.740;22.908;2023-12-28T04:52:21;94179.72;;;-0.57;78.59
45793;BME280;31495;42.740;22.908;2023-12-28T04:53:20;94042.66;;;-1.49;78.78
45793;BME280;31495;42.740;22.908;2023-12-28T04:54:21;94144.94;;;-0.79;78.91
45793;BME280;31495;42.740;22.908;2023-12-28T04:55:20;94049.09;;;-1.45;79.06
45793;BME280;31495;42.740;22.908;2023-12-28T04:56:20;94039.53;;;-1.41;78.54
45793;BME280;31495;42.740;22.908;2023-12-28T04:57:19;94158.44;;;-0.67;78.33
45793;BME280;31495;42.740;22.908;2023-12-28T04:58:19;94145.50;;;-0.76;77.98
45793;BME280;31495;42.740;22.908;2023-12-28T04:59:18;94099.09;;;-1.00;77.41
45793;BME280;31495;42.740;22.908;2023-12-28T05:00:18;94117.47;;;-0.97;77.31
45793;BME280;31495;42.740;22.908;2023-12-28T05:01:17;94147.13;;;-0.86;77.12
45793;BME280;31495;42.740;22.908;2023-12-28T05:02:17;94103.47;;;-1.14;77.03
45793;BME280;31495;42.740;22.908;2023-12-28T05:03:16;94180.63;;;-0.58;77.03
45793;BME280;31495;42.740;22.908;2023-12-28T05:04:15;94163.91;;;-0.72;76.84
45793;BME280;31495;42.740;22.908;2023-12-28T05:05:15;94107.31;;;-1.08;76.88
45793;BME280;31495;42.740;22.908;2023-12-28T05:06:14;94164.34;;;-0.78;77.15
45793;BME280;31495;42.740;22.908;2023-12-28T05:07:14;94150.63;;;-0.87;77.28
45793;BME280;31495;42.740;22.908;2023-12-28T05:08:13;94102.44;;;-1.22;77.26
45793;BME280;31495;42.740;22.908;2023-12-28T05:09:12;94184.47;;;-0.75;77.78
45793;BME280;31495;42.740;22.908;2023-12-28T05:10:12;94157.19;;;-0.96;77.53
45793;BME280;31495;42.740;22.908;2023-12-28T05:11:13;94173.34;;;-0.85;77.47
45793;BME280;31495;42.740;22.908;2023-12-28T05:12:13;94174.19;;;-0.73;77.29
45793;BME280;31495;42.740;22.908;2023-12-28T05:13:12;94078.56;;;-1.31;77.09
45793;BME280;31495;42.740;22.908;2023-12-28T05:14:12;94178.44;;;-0.63;76.82
45793;BME280;31495;42.740;22.908;2023-12-28T05:15:11;94161.69;;;-0.88;76.99
45793;BME280;31495;42.740;22.908;2023-12-28T05:16:11;94182.13;;;-0.89;77.33